sensor_id;sensor_type;location;lat;lon;timestamp;P1;durP1;ratioP1;P2;durP2;ratioP2
47844;SDS011;33605;48.822;8.796;2024-02-04T00:01:42;0.80;;;0.80;;
47844;SDS011;33605;48.822;8.796;2024-02-04T00:04:08;1.10;;;1.00;;
47844;SDS011;33605;48.822;8.796;2024-02-04T00:06:34;1.00;;;0.90;;
47844;SDS011;33605;48.822;8.796;2024-02-04T00:09:00;0.90;;;0.90;;
47844;SDS011;33605;48.822;8.796;2024-02-04T00:11:26;0.87;;;0.87;;
47844;SDS011;33605;48.822;8.796;2024-02-04T00:13:51;0.80;;;0.80;;
47844;SDS011;33605;48.822;8.796;2024-02-04T00:16:17;0.80;;;0.80;;
47844;SDS011;33605;48.822;8.796;2024-02-04T00:18:43;1.00;;;0.90;;
47844;SDS011;33605;48.822;8.796;2024-02-04T00:21:09;0.80;;;0.80;;
47844;SDS011;33605;48.822;8.796;2024-02-04T00:23:35;0.80;;;0.80;;
47844;SDS011;33605;48.822;8.796;2024-02-04T00:26:01;1.00;;;0.83;;
47844;SDS011;33605;48.822;8.796;2024-02-04T00:28:27;0.80;;;0.80;;
47844;SDS011;33605;48.822;8.796;2024-02-04T00:30:54;0.80;;;0.80;;
47844;SDS011;33605;48.822;8.796;2024-02-04T00:33:23;0.90;;;0.80;;
47844;SDS011;33605;48.822;8.796;2024-02-04T00:35:49;1.63;;;0.80;;
47844;SDS011;33605;48.822;8.796;2024-02-04T00:38:15;0.80;;;0.80;;
47844;SDS011;33605;48.822;8.796;2024-02-04T00:40:41;0.80;;;0.80;;
47844;SDS011;33605;48.822;8.796;2024-02-04T00:43:07;0.70;;;0.70;;
47844;SDS011;33605;48.822;8.796;2024-02-04T00:45:33;0.80;;;0.80;;
47844;SDS011;33605;48.822;8.796;2024-02-04T00:47:59;0.70;;;0.70;;
47844;SDS011;33605;48.822;8.796;2024-02-04T00:50:25;0.80;;;0.70;;
47844;SDS011;33605;48.822;8.796;2024-02-04T00:52:51;1.10;;;1.00;;
47844;SDS011;33605;48.822;8.796;2024-02-04T00:55:18;0.80;;;0.80;;
47844;SDS011;33605;48.822;8.796;2024-02-04T00:57:44;0.80;;;0.80;;
47844;SDS011;33605;48.822;8.796;2024-02-04T01:00:10;0.70;;;0.70;;
47844;SDS011;33605;48.822;8.796;2024-02-04T01:02:38;0.80;;;0.80;;
47844;SDS011;33605;48.822;8.796;2024-02-04T01:05:04;1.10;;;0.80;;
47844;SDS011;33605;48.822;8.796;2024-02-04T01:07:30;1.00;;;0.83;;
47844;SDS011;33605;48.822;8.796;2024-02-04T01:09:56;0.80;;;0.77;;
47844;SDS011;33605;48.822;8.796;2024-02-04T01:12:22;1.40;;;1.30;;
47844;SDS011;33605;48.822;8.796;2024-02-04T01:14:48;0.70;;;0.70;;
47844;SDS011;33605;48.822;8.796;2024-02-04T01:17:14;0.80;;;0.80;;
47844;SDS011;33605;48.822;8.796;2024-02-04T01:19:40;0.80;;;0.80;;
47844;SDS011;33605;48.822;8.796;2024-02-04T01:22:09;0.80;;;0.80;;
47844;SDS011;33605;48.822;8.796;2024-02-04T01:24:35;0.80;;;0.80;;
47844;SDS011;33605;48.822;8.796;2024-02-04T01:27:01;0.70;;;0.70;;
47844;SDS011;33605;48.822;8.796;2024-02-04T01:29:27;0.80;;;0.80;;
47844;SDS011;33605;48.822;8.796;2024-02-04T01:31:53;0.80;;;0.80;;
47844;SDS011;33605;48.822;8.796;2024-02-04T01:34:19;0.90;;;0.80;;
47844;SDS011;33605;48.822;8.796;2024-02-04T01:36:45;0.70;;;0.70;;
47844;SDS011;33605;48.822;8.796;2024-02-04T01:39:11;0.90;;;0.80;;
47844;SDS011;33605;48.822;8.796;2024-02-04T01:41:37;1.10;;;0.80;;
47844;SDS011;33605;48.822;8.796;2024-02-04T01:44:03;0.80;;;0.80;;
47844;SDS011;33605;48.822;8.796;2024-02-04T01:46:29;0.80;;;0.73;;
47844;SDS011;33605;48.822;8.796;2024-02-04T01:48:55;0.70;;;0.70;;
47844;SDS011;33605;48.822;8.796;2024-02-04T01:51:21;0.80;;;0.80;;
47844;SDS011;33605;48.822;8.796;2024-02-04T01:53:47;0.80;;;0.80;;
47844;SDS011;33605;48.822;8.796;2024-02-04T01:56:13;0.70;;;0.70;;
47844;SDS011;33605;48.822;8.796;2024-02-04T01:58:39;0.80;;;0.80;;
47844;SDS011;33605;48.822;8.796;2024-02-04T02:01:05;0.80;;;0.80;;
47844;SDS011;33605;48.822;8.796;2024-02-04T02:03:31;0.80;;;0.80;;
47844;SDS011;33605;48.822;8.796;2024-02-04T02:05:58;0.80;;;0.80;;
47844;SDS011;33605;48.822;8.796;2024-02-04T02:08:24;0.70;;;0.70;;
47844;SDS011;33605;48.822;8.796;2024-02-04T02:10:51;0.80;;;0.80;;
47844;SDS011;33605;48.822;8.796;2024-02-04T02:13:27;0.80;;;0.80;;
47844;SDS011;33605;48.822;8.796;2024-02-04T02:15:56;0.83;;;0.83;;
47844;SDS011;33605;48.822;8.796;2024-02-04T02:18:28;0.70;;;0.70;;
47844;SDS011;33605;48.822;8.796;2024-02-04T02:21:12;0.80;;;0.80;;
47844;SDS011;33605;48.822;8.796;2024-02-04T02:23:53;0.80;;;0.80;;
47844;SDS011;33605;48.822;8.796;2024-02-04T02:26:26;0.80;;;0.80;;
47844;SDS011;33605;48.822;8.796;2024-02-04T02:28:52;1.30;;;1.20;;
47844;SDS011;33605;48.822;8.796;2024-02-04T02:31:18;0.80;;;0.80;;
47844;SDS011;33605;48.822;8.796;2024-02-04T02:33:45;0.90;;;0.90;;
47844;SDS011;33605;48.822;8.796;2024-02-04T02:36:13;0.90;;;0.90;;
47844;SDS011;33605;48.822;8.796;2024-02-04T02:39:25;0.80;;;0.80;;
47844;SDS011;33605;48.822;8.796;2024-02-04T02:41:25;0.80;;;0.70;;
47844;SDS011;33605;48.822;8.796;2024-02-04T02:43:54;0.77;;;0.77;;
47844;SDS011;33605;48.822;8.796;2024-02-04T02:46:21;0.90;;;0.80;;
47844;SDS011;33605;48.822;8.796;2024-02-04T02:48:48;0.70;;;0.70;;
47844;SDS011;33605;48.822;8.796;2024-02-04T02:51:14;0.80;;;0.80;;
47844;SDS011;33605;48.822;8.796;2024-02-04T02:53:40;0.70;;;0.70;;
47844;SDS011;33605;48.822;8.796;2024-02-04T02:56:06;0.70;;;0.70;;
47844;SDS011;33605;48.822;8.796;2024-02-04T02:58:32;0.80;;;0.80;;
47844;SDS011;33605;48.822;8.796;2024-02-04T03:00:58;0.80;;;0.77;;
47844;SDS011;33605;48.822;8.796;2024-02-04T03:03:24;0.90;;;0.80;;
47844;SDS011;33605;48.822;8.796;2024-02-04T03:05:50;0.90;;;0.90;;
47844;SDS011;33605;48.822;8.796;2024-02-04T03:08:16;0.90;;;0.77;;
47844;SDS011;33605;48.822;8.796;2024-02-04T03:10:42;0.80;;;0.80;;
47844;SDS011;33605;48.822;8.796;2024-02-04T03:13:08;0.70;;;0.70;;
47844;SDS011;33605;48.822;8.796;2024-02-04T03:15:34;0.80;;;0.80;;
47844;SDS011;33605;48.822;8.796;2024-02-04T03:18:00;0.97;;;0.87;;
47844;SDS011;33605;48.822;8.796;2024-02-04T03:20:26;1.93;;;0.80;;
47844;SDS011;33605;48.822;8.796;2024-02-04T03:22:52;0.70;;;0.70;;
47844;SDS011;33605;48.822;8.796;2024-02-04T03:25:18;0.83;;;0.80;;
47844;SDS011;33605;48.822;8.796;2024-02-04T03:27:44;2.33;;;1.00;;
47844;SDS011;33605;48.822;8.796;2024-02-04T03:30:10;0.80;;;0.80;;
47844;SDS011;33605;48.822;8.796;2024-02-04T03:32:36;0.80;;;0.80;;
47844;SDS011;33605;48.822;8.796;2024-02-04T03:35:02;0.87;;;0.80;;
47844;SDS011;33605;48.822;8.796;2024-02-04T03:37:28;0.80;;;0.80;;
47844;SDS011;33605;48.822;8.796;2024-02-04T03:39:54;0.80;;;0.80;;
47844;SDS011;33605;48.822;8.796;2024-02-04T03:42:20;0.80;;;0.80;;
47844;SDS011;33605;48.822;8.796;2024-02-04T03:44:47;0.70;;;0.70;;
47844;SDS011;33605;48.822;8.796;2024-02-04T03:47:13;0.80;;;0.70;;
47844;SDS011;33605;48.822;8.796;2024-02-04T03:49:39;0.83;;;0.83;;
47844;SDS011;33605;48.822;8.796;2024-02-04T03:54:43;0.80;;;0.80;;
47844;SDS011;33605;48.822;8.796;2024-02-04T03:57:09;0.80;;;0.80;;
47844;SDS011;33605;48.822;8.796;2024-02-04T03:59:35;0.80;;;0.80;;
47844;SDS011;33605;48.822;8.796;2024-02-04T04:02:01;0.80;;;0.80;;
47844;SDS011;33605;48.822;8.796;2024-02-04T04:04:27;0.80;;;0.80;;
47844;SDS011;33605;48.822;8.796;2024-02-04T04:06:53;0.80;;;0.80;;
47844;SDS011;33605;48.822;8.796;2024-02-04T04:09:19;0.80;;;0.80;;
47844;SDS011;33605;48.822;8.796;2024-02-04T04:11:45;0.77;;;0.77;;
47844;SDS011;33605;48.822;8.796;2024-02-04T04:14:11;0.80;;;0.80;;
47844;SDS011;33605;48.822;8.796;2024-02-04T04:16:37;0.80;;;0.80;;
47844;SDS011;33605;48.822;8.796;2024-02-04T04:19:03;0.70;;;0.70;;
47844;SDS011;33605;48.822;8.796;2024-02-04T04:21:29;0.70;;;0.70;;
47844;SDS011;33605;48.822;8.796;2024-02-04T04:23:55;0.80;;;0.80;;
47844;SDS011;33605;48.822;8.796;2024-02-04T04:26:21;0.70;;;0.70;;
47844;SDS011;33605;48.822;8.796;2024-02-04T04:28:47;0.80;;;0.80;;
47844;SDS011;33605;48.822;8.796;2024-02-04T04:31:13;0.80;;;0.80;;
47844;SDS011;33605;48.822;8.796;2024-02-04T04:33:39;0.80;;;0.80;;
47844;SDS011;33605;48.822;8.796;2024-02-04T04:36:05;0.80;;;0.80;;
47844;SDS011;33605;48.822;8.796;2024-02-04T04:38:31;0.80;;;0.80;;
47844;SDS011;33605;48.822;8.796;2024-02-04T04:40:57;0.90;;;0.90;;
47844;SDS011;33605;48.822;8.796;2024-02-04T04:43:23;0.80;;;0.80;;
47844;SDS011;33605;48.822;8.796;2024-02-04T04:45:51;0.80;;;0.80;;
47844;SDS011;33605;48.822;8.796;2024-02-04T04:48:17;0.80;;;0.80;;
47844;SDS011;33605;48.822;8.796;2024-02-04T04:50:43;0.80;;;0.80;;
47844;SDS011;33605;48.822;8.796;2024-02-04T04:53:09;0.80;;;0.80;;
47844;SDS011;33605;48.822;8.796;2024-02-04T04:55:35;0.80;;;0.80;;
47844;SDS011;33605;48.822;8.796;2024-02-04T04:58:01;0.80;;;0.80;;
47844;SDS011;33605;48.822;8.796;2024-02-04T05:00:28;0.80;;;0.70;;
47844;SDS011;33605;48.822;8.796;2024-02-04T05:02:54;0.80;;;0.80;;
47844;SDS011;33605;48.822;8.796;2024-02-04T05:05:20;1.07;;;0.90;;
47844;SDS011;33605;48.822;8.796;2024-02-04T05:07:46;1.20;;;0.80;;
47844;SDS011;33605;48.822;8.796;2024-02-04T05:10:12;0.80;;;0.80;;
47844;SDS011;33605;48.822;8.796;2024-02-04T05:12:38;0.80;;;0.70;;
47844;SDS011;33605;48.822;8.796;2024-02-04T05:15:04;0.80;;;0.80;;
47844;SDS011;33605;48.822;8.796;2024-02-04T05:17:30;0.80;;;0.80;;
47844;SDS011;33605;48.822;8.796;2024-02-04T05:19:57;1.17;;;1.00;;
47844;SDS011;33605;48.822;8.796;2024-02-04T05:22:23;0.70;;;0.70;;
47844;SDS011;33605;48.822;8.796;2024-02-04T05:24:49;0.70;;;0.70;;
47844;SDS011;33605;48.822;8.796;2024-02-04T05:27:15;0.90;;;0.90;;
47844;SDS011;33605;48.822;8.796;2024-02-04T05:29:41;0.83;;;0.83;;
47844;SDS011;33605;48.822;8.796;2024-02-04T05:32:07;0.80;;;0.80;;
47844;SDS011;33605;48.822;8.796;2024-02-04T05:34:33;0.90;;;0.90;;
47844;SDS011;33605;48.822;8.796;2024-02-04T05:36:59;0.80;;;0.80;;
47844;SDS011;33605;48.822;8.796;2024-02-04T05:39:25;0.80;;;0.80;;
47844;SDS011;33605;48.822;8.796;2024-02-04T05:41:51;1.00;;;1.00;;
47844;SDS011;33605;48.822;8.796;2024-02-04T05:44:17;1.00;;;0.90;;
47844;SDS011;33605;48.822;8.796;2024-02-04T05:46:43;0.80;;;0.80;;
47844;SDS011;33605;48.822;8.796;2024-02-04T05:49:09;0.97;;;0.87;;
47844;SDS011;33605;48.822;8.796;2024-02-04T05:51:39;0.90;;;0.90;;
47844;SDS011;33605;48.822;8.796;2024-02-04T05:54:08;0.70;;;0.70;;
47844;SDS011;33605;48.822;8.796;2024-02-04T05:56:34;0.80;;;0.80;;
47844;SDS011;33605;48.822;8.796;2024-02-04T05:59:00;0.80;;;0.80;;
47844;SDS011;33605;48.822;8.796;2024-02-04T06:01:26;1.10;;;1.00;;
47844;SDS011;33605;48.822;8.796;2024-02-04T06:03:52;0.83;;;0.80;;
47844;SDS011;33605;48.822;8.796;2024-02-04T06:06:18;1.20;;;1.10;;
47844;SDS011;33605;48.822;8.796;2024-02-04T06:08:48;1.10;;;1.00;;
47844;SDS011;33605;48.822;8.796;2024-02-04T06:11:14;0.80;;;0.80;;
47844;SDS011;33605;48.822;8.796;2024-02-04T06:13:41;0.90;;;0.87;;
47844;SDS011;33605;48.822;8.796;2024-02-04T06:16:07;1.50;;;1.40;;
47844;SDS011;33605;48.822;8.796;2024-02-04T06:18:34;0.87;;;0.87;;
47844;SDS011;33605;48.822;8.796;2024-02-04T06:21:02;1.90;;;1.80;;
47844;SDS011;33605;48.822;8.796;2024-02-04T06:23:28;1.30;;;1.20;;
47844;SDS011;33605;48.822;8.796;2024-02-04T06:25:54;1.40;;;1.30;;
47844;SDS011;33605;48.822;8.796;2024-02-04T06:28:20;1.00;;;0.80;;
47844;SDS011;33605;48.822;8.796;2024-02-04T06:30:46;0.90;;;0.80;;
47844;SDS011;33605;48.822;8.796;2024-02-04T06:33:12;0.90;;;0.90;;
47844;SDS011;33605;48.822;8.796;2024-02-04T06:35:38;1.10;;;1.00;;
47844;SDS011;33605;48.822;8.796;2024-02-04T06:38:04;0.90;;;0.90;;
47844;SDS011;33605;48.822;8.796;2024-02-04T06:40:30;0.90;;;0.90;;
47844;SDS011;33605;48.822;8.796;2024-02-04T06:42:56;0.80;;;0.80;;
47844;SDS011;33605;48.822;8.796;2024-02-04T06:45:22;1.73;;;1.10;;
47844;SDS011;33605;48.822;8.796;2024-02-04T06:47:48;1.30;;;0.90;;
47844;SDS011;33605;48.822;8.796;2024-02-04T06:50:14;0.90;;;0.90;;
47844;SDS011;33605;48.822;8.796;2024-02-04T06:52:41;0.77;;;0.77;;
47844;SDS011;33605;48.822;8.796;2024-02-04T06:55:10;1.00;;;0.77;;
47844;SDS011;33605;48.822;8.796;2024-02-04T06:57:36;0.70;;;0.70;;
47844;SDS011;33605;48.822;8.796;2024-02-04T07:00:02;0.90;;;0.80;;
47844;SDS011;33605;48.822;8.796;2024-02-04T07:02:33;0.80;;;0.80;;
47844;SDS011;33605;48.822;8.796;2024-02-04T07:04:59;0.83;;;0.80;;
47844;SDS011;33605;48.822;8.796;2024-02-04T07:07:26;1.83;;;0.90;;
47844;SDS011;33605;48.822;8.796;2024-02-04T07:09:52;0.77;;;0.77;;
47844;SDS011;33605;48.822;8.796;2024-02-04T07:12:17;0.80;;;0.80;;
47844;SDS011;33605;48.822;8.796;2024-02-04T07:14:44;0.90;;;0.90;;
47844;SDS011;33605;48.822;8.796;2024-02-04T07:17:10;0.80;;;0.80;;
47844;SDS011;33605;48.822;8.796;2024-02-04T07:19:36;0.80;;;0.80;;
47844;SDS011;33605;48.822;8.796;2024-02-04T07:22:03;1.10;;;1.00;;
47844;SDS011;33605;48.822;8.796;2024-02-04T07:24:29;0.80;;;0.80;;
47844;SDS011;33605;48.822;8.796;2024-02-04T07:26:55;0.87;;;0.87;;
47844;SDS011;33605;48.822;8.796;2024-02-04T07:29:21;0.80;;;0.80;;
47844;SDS011;33605;48.822;8.796;2024-02-04T07:31:47;5.83;;;1.20;;
47844;SDS011;33605;48.822;8.796;2024-02-04T07:34:12;1.30;;;1.20;;
47844;SDS011;33605;48.822;8.796;2024-02-04T07:36:39;1.00;;;0.90;;
47844;SDS011;33605;48.822;8.796;2024-02-04T07:39:05;0.80;;;0.80;;
47844;SDS011;33605;48.822;8.796;2024-02-04T07:41:31;0.80;;;0.80;;
47844;SDS011;33605;48.822;8.796;2024-02-04T07:43:57;0.97;;;0.90;;
47844;SDS011;33605;48.822;8.796;2024-02-04T07:46:23;1.00;;;0.90;;
47844;SDS011;33605;48.822;8.796;2024-02-04T07:48:49;1.00;;;0.90;;
47844;SDS011;33605;48.822;8.796;2024-02-04T07:51:15;0.97;;;0.97;;
47844;SDS011;33605;48.822;8.796;2024-02-04T07:53:41;0.90;;;0.90;;
47844;SDS011;33605;48.822;8.796;2024-02-04T07:56:07;1.00;;;1.00;;
47844;SDS011;33605;48.822;8.796;2024-02-04T07:58:33;0.80;;;0.80;;
47844;SDS011;33605;48.822;8.796;2024-02-04T08:00:59;2.50;;;0.90;;
47844;SDS011;33605;48.822;8.796;2024-02-04T08:03:25;0.90;;;0.80;;
47844;SDS011;33605;48.822;8.796;2024-02-04T08:05:52;1.40;;;1.20;;
47844;SDS011;33605;48.822;8.796;2024-02-04T08:08:18;0.97;;;0.90;;
47844;SDS011;33605;48.822;8.796;2024-02-04T08:10:44;0.80;;;0.80;;
47844;SDS011;33605;48.822;8.796;2024-02-04T08:13:10;1.00;;;0.87;;
47844;SDS011;33605;48.822;8.796;2024-02-04T08:15:36;0.90;;;0.90;;
47844;SDS011;33605;48.822;8.796;2024-02-04T08:18:02;0.90;;;0.90;;
47844;SDS011;33605;48.822;8.796;2024-02-04T08:20:28;0.90;;;0.90;;
47844;SDS011;33605;48.822;8.796;2024-02-04T08:22:54;1.00;;;0.90;;
47844;SDS011;33605;48.822;8.796;2024-02-04T08:25:20;1.00;;;0.90;;
47844;SDS011;33605;48.822;8.796;2024-02-04T08:27:46;1.07;;;0.97;;
47844;SDS011;33605;48.822;8.796;2024-02-04T08:30:12;2.20;;;1.10;;
47844;SDS011;33605;48.822;8.796;2024-02-04T08:32:38;0.97;;;0.90;;
47844;SDS011;33605;48.822;8.796;2024-02-04T08:35:04;3.37;;;0.90;;
47844;SDS011;33605;48.822;8.796;2024-02-04T08:37:31;1.10;;;1.00;;
47844;SDS011;33605;48.822;8.796;2024-02-04T08:39:58;1.87;;;1.10;;
47844;SDS011;33605;48.822;8.796;2024-02-04T08:42:24;1.60;;;1.30;;
47844;SDS011;33605;48.822;8.796;2024-02-04T08:44:50;1.27;;;1.17;;
47844;SDS011;33605;48.822;8.796;2024-02-04T08:47:16;1.17;;;1.07;;
47844;SDS011;33605;48.822;8.796;2024-02-04T08:49:43;0.80;;;0.80;;
47844;SDS011;33605;48.822;8.796;2024-02-04T08:52:09;1.00;;;1.00;;
47844;SDS011;33605;48.822;8.796;2024-02-04T08:54:35;1.10;;;1.00;;
47844;SDS011;33605;48.822;8.796;2024-02-04T08:57:01;1.00;;;0.90;;
47844;SDS011;33605;48.822;8.796;2024-02-04T08:59:27;1.80;;;0.90;;
47844;SDS011;33605;48.822;8.796;2024-02-04T09:01:53;1.00;;;0.90;;
47844;SDS011;33605;48.822;8.796;2024-02-04T09:04:19;1.30;;;1.20;;
47844;SDS011;33605;48.822;8.796;2024-02-04T09:06:45;1.50;;;1.40;;
47844;SDS011;33605;48.822;8.796;2024-02-04T09:09:11;0.90;;;0.90;;
47844;SDS011;33605;48.822;8.796;2024-02-04T09:11:37;0.93;;;0.90;;
47844;SDS011;33605;48.822;8.796;2024-02-04T09:14:03;0.80;;;0.80;;
47844;SDS011;33605;48.822;8.796;2024-02-04T09:16:30;2.30;;;1.80;;
47844;SDS011;33605;48.822;8.796;2024-02-04T09:18:55;1.57;;;1.10;;
47844;SDS011;33605;48.822;8.796;2024-02-04T09:21:21;1.47;;;1.37;;
47844;SDS011;33605;48.822;8.796;2024-02-04T09:23:47;1.60;;;1.30;;
47844;SDS011;33605;48.822;8.796;2024-02-04T09:26:13;0.90;;;0.90;;
47844;SDS011;33605;48.822;8.796;2024-02-04T09:28:40;1.30;;;1.10;;
47844;SDS011;33605;48.822;8.796;2024-02-04T09:31:08;1.30;;;1.20;;
47844;SDS011;33605;48.822;8.796;2024-02-04T09:33:35;1.97;;;1.50;;
47844;SDS011;33605;48.822;8.796;2024-02-04T09:36:03;2.13;;;1.60;;
47844;SDS011;33605;48.822;8.796;2024-02-04T09:38:29;1.60;;;1.50;;
47844;SDS011;33605;48.822;8.796;2024-02-04T09:40:55;2.00;;;1.77;;
47844;SDS011;33605;48.822;8.796;2024-02-04T09:43:21;7.60;;;4.50;;
47844;SDS011;33605;48.822;8.796;2024-02-04T09:45:47;3.03;;;2.77;;
47844;SDS011;33605;48.822;8.796;2024-02-04T09:48:14;7.90;;;5.27;;
47844;SDS011;33605;48.822;8.796;2024-02-04T09:50:44;7.17;;;4.73;;
47844;SDS011;33605;48.822;8.796;2024-02-04T09:53:10;1.60;;;1.50;;
47844;SDS011;33605;48.822;8.796;2024-02-04T09:55:40;2.03;;;1.93;;
47844;SDS011;33605;48.822;8.796;2024-02-04T09:58:06;1.60;;;1.50;;
47844;SDS011;33605;48.822;8.796;2024-02-04T10:00:32;1.50;;;1.40;;
47844;SDS011;33605;48.822;8.796;2024-02-04T10:02:59;0.90;;;0.90;;
47844;SDS011;33605;48.822;8.796;2024-02-04T10:05:26;4.03;;;1.40;;
47844;SDS011;33605;48.822;8.796;2024-02-04T10:07:52;1.20;;;1.10;;
47844;SDS011;33605;48.822;8.796;2024-02-04T10:10:18;1.00;;;1.00;;
47844;SDS011;33605;48.822;8.796;2024-02-04T10:12:44;1.10;;;0.90;;
47844;SDS011;33605;48.822;8.796;2024-02-04T10:15:10;3.53;;;1.80;;
47844;SDS011;33605;48.822;8.796;2024-02-04T10:17:41;1.73;;;1.03;;
47844;SDS011;33605;48.822;8.796;2024-02-04T10:20:09;2.00;;;1.40;;
47844;SDS011;33605;48.822;8.796;2024-02-04T10:22:35;1.70;;;1.37;;
47844;SDS011;33605;48.822;8.796;2024-02-04T10:25:05;1.40;;;1.30;;
47844;SDS011;33605;48.822;8.796;2024-02-04T10:27:32;1.17;;;1.07;;
47844;SDS011;33605;48.822;8.796;2024-02-04T10:29:58;1.20;;;1.10;;
47844;SDS011;33605;48.822;8.796;2024-02-04T10:32:24;1.10;;;1.00;;
47844;SDS011;33605;48.822;8.796;2024-02-04T10:34:50;1.10;;;1.00;;
47844;SDS011;33605;48.822;8.796;2024-02-04T10:37:16;1.53;;;0.80;;
47844;SDS011;33605;48.822;8.796;2024-02-04T10:39:42;0.93;;;0.93;;
47844;SDS011;33605;48.822;8.796;2024-02-04T10:42:08;1.30;;;1.20;;
47844;SDS011;33605;48.822;8.796;2024-02-04T10:44:35;3.13;;;2.37;;
47844;SDS011;33605;48.822;8.796;2024-02-04T10:47:02;1.10;;;1.00;;
47844;SDS011;33605;48.822;8.796;2024-02-04T10:49:32;1.43;;;1.27;;
47844;SDS011;33605;48.822;8.796;2024-02-04T10:52:01;1.20;;;1.10;;
47844;SDS011;33605;48.822;8.796;2024-02-04T10:54:29;1.97;;;1.80;;
47844;SDS011;33605;48.822;8.796;2024-02-04T10:56:56;4.77;;;3.20;;
47844;SDS011;33605;48.822;8.796;2024-02-04T10:59:24;3.07;;;2.13;;
47844;SDS011;33605;48.822;8.796;2024-02-04T11:01:50;0.87;;;0.87;;
47844;SDS011;33605;48.822;8.796;2024-02-04T11:04:17;3.00;;;2.10;;
47844;SDS011;33605;48.822;8.796;2024-02-04T11:06:44;1.60;;;1.47;;
47844;SDS011;33605;48.822;8.796;2024-02-04T11:09:11;1.13;;;1.03;;
47844;SDS011;33605;48.822;8.796;2024-02-04T11:11:37;2.00;;;1.80;;
47844;SDS011;33605;48.822;8.796;2024-02-04T11:14:04;1.43;;;1.33;;
47844;SDS011;33605;48.822;8.796;2024-02-04T11:24:14;1.00;;;0.90;;
47844;SDS011;33605;48.822;8.796;2024-02-04T11:26:43;2.30;;;2.10;;
47844;SDS011;33605;48.822;8.796;2024-02-04T11:29:10;2.33;;;2.00;;
47844;SDS011;33605;48.822;8.796;2024-02-04T11:31:38;1.70;;;1.57;;
47844;SDS011;33605;48.822;8.796;2024-02-04T11:34:07;1.10;;;1.00;;
47844;SDS011;33605;48.822;8.796;2024-02-04T11:36:37;2.03;;;1.80;;
47844;SDS011;33605;48.822;8.796;2024-02-04T11:39:11;3.97;;;2.83;;
47844;SDS011;33605;48.822;8.796;2024-02-04T11:41:44;4.30;;;3.87;;
47844;SDS011;33605;48.822;8.796;2024-02-04T11:44:10;1.10;;;1.00;;
47844;SDS011;33605;48.822;8.796;2024-02-04T11:46:36;1.30;;;1.20;;
47844;SDS011;33605;48.822;8.796;2024-02-04T11:49:02;1.10;;;1.00;;
47844;SDS011;33605;48.822;8.796;2024-02-04T11:51:29;0.90;;;0.90;;
47844;SDS011;33605;48.822;8.796;2024-02-04T11:53:55;1.40;;;1.30;;
47844;SDS011;33605;48.822;8.796;2024-02-04T11:56:23;0.90;;;0.90;;
47844;SDS011;33605;48.822;8.796;2024-02-04T11:58:50;0.90;;;0.90;;
47844;SDS011;33605;48.822;8.796;2024-02-04T12:01:16;1.00;;;0.90;;
47844;SDS011;33605;48.822;8.796;2024-02-04T12:03:42;1.30;;;1.20;;
47844;SDS011;33605;48.822;8.796;2024-02-04T12:06:08;1.43;;;1.10;;
47844;SDS011;33605;48.822;8.796;2024-02-04T12:08:35;1.20;;;1.10;;
47844;SDS011;33605;48.822;8.796;2024-02-04T12:11:01;3.13;;;2.40;;
47844;SDS011;33605;48.822;8.796;2024-02-04T12:13:28;3.60;;;2.50;;
47844;SDS011;33605;48.822;8.796;2024-02-04T12:15:54;1.10;;;0.90;;
47844;SDS011;33605;48.822;8.796;2024-02-04T12:18:20;1.03;;;0.97;;
47844;SDS011;33605;48.822;8.796;2024-02-04T12:20:47;1.20;;;1.10;;
47844;SDS011;33605;48.822;8.796;2024-02-04T12:23:14;1.60;;;1.50;;
47844;SDS011;33605;48.822;8.796;2024-02-04T12:25:40;1.03;;;0.93;;
47844;SDS011;33605;48.822;8.796;2024-02-04T12:28:06;1.37;;;1.27;;
47844;SDS011;33605;48.822;8.796;2024-02-04T12:30:32;1.33;;;1.23;;
47844;SDS011;33605;48.822;8.796;2024-02-04T12:32:59;1.87;;;1.00;;
47844;SDS011;33605;48.822;8.796;2024-02-04T12:35:25;3.63;;;0.90;;
47844;SDS011;33605;48.822;8.796;2024-02-04T12:37:53;1.10;;;1.00;;
47844;SDS011;33605;48.822;8.796;2024-02-04T12:42:54;1.30;;;1.00;;
47844;SDS011;33605;48.822;8.796;2024-02-04T12:45:24;1.20;;;1.10;;
47844;SDS011;33605;48.822;8.796;2024-02-04T12:47:50;1.30;;;1.20;;
47844;SDS011;33605;48.822;8.796;2024-02-04T12:50:17;1.10;;;1.00;;
47844;SDS011;33605;48.822;8.796;2024-02-04T12:52:46;1.67;;;1.40;;
47844;SDS011;33605;48.822;8.796;2024-02-04T12:55:19;3.30;;;1.93;;
47844;SDS011;33605;48.822;8.796;2024-02-04T12:57:47;2.00;;;1.90;;
47844;SDS011;33605;48.822;8.796;2024-02-04T13:00:14;1.60;;;1.50;;
47844;SDS011;33605;48.822;8.796;2024-02-04T13:02:43;1.27;;;1.17;;
47844;SDS011;33605;48.822;8.796;2024-02-04T13:05:09;1.63;;;1.53;;
47844;SDS011;33605;48.822;8.796;2024-02-04T13:07:35;1.43;;;1.33;;
47844;SDS011;33605;48.822;8.796;2024-02-04T13:10:02;1.83;;;1.40;;
47844;SDS011;33605;48.822;8.796;2024-02-04T13:12:28;1.37;;;1.27;;
47844;SDS011;33605;48.822;8.796;2024-02-04T13:14:54;1.53;;;1.17;;
47844;SDS011;33605;48.822;8.796;2024-02-04T13:17:20;1.40;;;1.27;;
47844;SDS011;33605;48.822;8.796;2024-02-04T13:19:46;2.17;;;1.97;;
47844;SDS011;33605;48.822;8.796;2024-02-04T13:22:12;1.40;;;1.30;;
47844;SDS011;33605;48.822;8.796;2024-02-04T13:24:39;2.83;;;1.50;;
47844;SDS011;33605;48.822;8.796;2024-02-04T13:27:05;1.40;;;1.30;;
47844;SDS011;33605;48.822;8.796;2024-02-04T13:29:32;1.40;;;1.30;;
47844;SDS011;33605;48.822;8.796;2024-02-04T13:31:58;1.20;;;1.10;;
47844;SDS011;33605;48.822;8.796;2024-02-04T13:34:24;2.50;;;2.13;;
47844;SDS011;33605;48.822;8.796;2024-02-04T13:36:50;1.20;;;1.10;;
47844;SDS011;33605;48.822;8.796;2024-02-04T13:39:16;2.50;;;2.00;;
47844;SDS011;33605;48.822;8.796;2024-02-04T13:41:43;1.30;;;1.20;;
47844;SDS011;33605;48.822;8.796;2024-02-04T13:44:09;1.43;;;1.33;;
47844;SDS011;33605;48.822;8.796;2024-02-04T13:46:35;1.23;;;1.13;;
47844;SDS011;33605;48.822;8.796;2024-02-04T13:49:02;1.57;;;1.10;;
47844;SDS011;33605;48.822;8.796;2024-02-04T13:51:28;1.50;;;1.40;;
47844;SDS011;33605;48.822;8.796;2024-02-04T13:53:54;1.20;;;1.10;;
47844;SDS011;33605;48.822;8.796;2024-02-04T13:56:20;1.30;;;1.20;;
47844;SDS011;33605;48.822;8.796;2024-02-04T13:58:46;2.10;;;1.80;;
47844;SDS011;33605;48.822;8.796;2024-02-04T14:01:12;2.17;;;1.60;;
47844;SDS011;33605;48.822;8.796;2024-02-04T14:03:40;2.53;;;2.13;;
47844;SDS011;33605;48.822;8.796;2024-02-04T14:06:06;1.50;;;1.40;;
47844;SDS011;33605;48.822;8.796;2024-02-04T14:08:32;2.60;;;2.40;;
47844;SDS011;33605;48.822;8.796;2024-02-04T14:10:58;2.77;;;2.30;;
47844;SDS011;33605;48.822;8.796;2024-02-04T14:13:24;1.50;;;1.40;;
47844;SDS011;33605;48.822;8.796;2024-02-04T14:15:50;1.10;;;1.00;;
47844;SDS011;33605;48.822;8.796;2024-02-04T14:18:17;2.17;;;1.80;;
47844;SDS011;33605;48.822;8.796;2024-02-04T14:20:43;1.30;;;1.20;;
47844;SDS011;33605;48.822;8.796;2024-02-04T14:23:09;2.20;;;1.73;;
47844;SDS011;33605;48.822;8.796;2024-02-04T14:25:35;1.90;;;1.67;;
47844;SDS011;33605;48.822;8.796;2024-02-04T14:28:01;1.60;;;1.50;;
47844;SDS011;33605;48.822;8.796;2024-02-04T14:30:28;5.03;;;3.40;;
47844;SDS011;33605;48.822;8.796;2024-02-04T14:32:54;4.03;;;1.80;;
47844;SDS011;33605;48.822;8.796;2024-02-04T14:35:20;2.90;;;1.73;;
47844;SDS011;33605;48.822;8.796;2024-02-04T14:37:45;1.40;;;1.30;;
47844;SDS011;33605;48.822;8.796;2024-02-04T14:40:11;1.40;;;1.30;;
47844;SDS011;33605;48.822;8.796;2024-02-04T14:42:38;1.47;;;1.30;;
47844;SDS011;33605;48.822;8.796;2024-02-04T14:45:05;1.50;;;1.27;;
47844;SDS011;33605;48.822;8.796;2024-02-04T14:47:31;1.37;;;1.27;;
47844;SDS011;33605;48.822;8.796;2024-02-04T14:49:57;1.63;;;1.43;;
47844;SDS011;33605;48.822;8.796;2024-02-04T14:52:23;1.43;;;1.20;;
47844;SDS011;33605;48.822;8.796;2024-02-04T14:54:49;1.30;;;1.20;;
47844;SDS011;33605;48.822;8.796;2024-02-04T14:57:15;2.83;;;1.60;;